Pagrindinis puslapis
METAR-TAF:

METAR-TAF

Oro uostai :

Karakasas, Venesuela

platuma: 10-36N, ilguma: 066-59W, Aukštis: 43 m

Dabartinis oras

Ataskaita buvo paskelbta 14 minutes, ne 00:02 UTC
Vėjas 9 kt iš Rytų
Temperatūra
Slėgis 1010 hPa

METAR: SVMI 200002Z AUTO 08009KT NCD ///// Q1010

Laikas: 20:16 (00:16 UTC)

Prognozė

Ataskaita buvo paskelbta 2 valandos ir 16 minutes, ne 22:00 UTC
Prognozė galioja nuo 20 metu 00 UTC su 21 metu 00 UTC
Vėjas 6 kt iš Rytų/Šiaurės Rytų
Matomumas 10 km arba daugiau
Išsisklaidę debesys ne aukštis 1600 ft
Tapsmas
nuo 20 metu 00 UTC su 20 metu 04 UTC
Vėjas 9 kt iš Šiaurės Rytų
Matomumas: 9000 m
Su prošvaistėmis ne aukštis 1600 ft
dulksna

TAF: SVMI 192200Z 2000/2100 06006KT 9999 SCT016 TX31/2018Z TN23/2008Z BECMG 2000/2004 05009KT 9000 DZ BKN016

Orai ataskaitas ir orų prognozės (METAR, TAF).

turimą stotys yra geltonos ir raudonos taškus žemėlapyje.

Perkelti pele per norėdami pamatyti stoties vardą.

Tada spustelėkite, norėdami matyti oro stebėjimo ir prognozės.

Norėdami pakeisti žemėlapį: spustelėkite ant žalios mygtukų su juodo kryžiaus žemyn,; žalią mygtuką su brūkšneliu, jei norite nutolinti; arba žalių rodyklių gretimoms žemėlapius.


METAR-TAF: